Terminal Aerodrome Forecast
Issued by NWS

Current Version | Previous Version | Graphics & Text | Print | Product List | Glossary On
Versions: 1 2 3 4 5 6 7 8 9 10 11 12 13 14 15 16 17 18 19 20 21 22
000
FTUS41 KILN 150800 AAA
TAFLUK
TAF AMD
KLUK 150857Z 1509/1606 32012G20KT 1SM -SN OVC008
     FM151030 34014G22KT 4SM -SN OVC007
     FM151100 33012G20KT P6SM OVC012
     FM151500 33012G20KT P6SM BKN028
     FM151800 32012G20KT P6SM BKN040
     FM152300 32007KT P6SM SCT040
     FM160100 00000KT P6SM SKC=

USA.gov is the U.S. government's official web portal to all federal, state and local government web resources and services.